createdAt,value
2023-01-31T00:01:35.100Z,6.30
2023-01-31T00:04:05.380Z,6.27
2023-01-31T00:06:37.394Z,6.18
2023-01-31T00:09:06.837Z,6.18
2023-01-31T00:11:36.213Z,6.19
2023-01-31T00:14:06.585Z,6.16
2023-01-31T00:16:35.146Z,6.20
2023-01-31T00:19:03.150Z,6.21
2023-01-31T00:21:32.489Z,6.20
2023-01-31T00:24:08.375Z,6.04
2023-01-31T00:26:37.356Z,6.07
2023-01-31T00:29:07.004Z,6.17
2023-01-31T00:31:37.032Z,6.16
2023-01-31T00:34:05.146Z,6.16
2023-01-31T00:36:35.185Z,6.19
2023-01-31T00:39:06.633Z,6.17
2023-01-31T00:41:36.121Z,6.14
2023-01-31T00:44:06.951Z,6.13
2023-01-31T00:46:36.151Z,6.17
2023-01-31T00:49:04.659Z,6.18
2023-01-31T00:51:32.773Z,6.13
2023-01-31T00:54:00.551Z,6.08
2023-01-31T00:56:29.774Z,6.17
2023-01-31T00:58:57.538Z,6.16
2023-01-31T01:01:27.111Z,6.08
2023-01-31T01:03:55.747Z,6.14
2023-01-31T01:06:24.407Z,6.09
2023-01-31T01:08:52.863Z,5.97
2023-01-31T01:11:23.053Z,6.07
2023-01-31T01:13:52.359Z,6.09
2023-01-31T01:16:24.488Z,6.11
2023-01-31T01:18:55.006Z,6.10
2023-01-31T01:21:25.250Z,6.09
2023-01-31T01:23:53.298Z,6.08
2023-01-31T01:26:24.469Z,5.93
2023-01-31T01:28:54.984Z,6.00
2023-01-31T01:31:30.380Z,5.99
2023-01-31T01:33:59.479Z,5.98
2023-01-31T01:36:27.855Z,6.01
2023-01-31T01:38:56.051Z,6.01
2023-01-31T01:41:24.983Z,6.04
2023-01-31T01:43:56.991Z,5.99
2023-01-31T01:46:29.369Z,6.04
2023-01-31T01:49:06.810Z,5.89
2023-01-31T01:51:36.107Z,6.00
2023-01-31T01:54:09.987Z,6.06
2023-01-31T01:56:40.562Z,6.07
2023-01-31T01:59:14.035Z,6.07
2023-01-31T02:01:42.124Z,6.07
2023-01-31T02:04:15.450Z,6.02
2023-01-31T02:06:44.191Z,6.06
2023-01-31T02:09:21.349Z,6.06
2023-01-31T02:11:49.818Z,6.07
2023-01-31T02:14:19.711Z,6.06
2023-01-31T02:16:47.557Z,6.08
2023-01-31T02:19:25.379Z,6.03
2023-01-31T02:22:14.002Z,6.02
2023-01-31T02:25:12.828Z,6.04
2023-01-31T02:28:17.991Z,6.03
2023-01-31T02:31:22.851Z,6.04
2023-01-31T02:33:59.123Z,6.05
2023-01-31T02:36:35.334Z,6.02
2023-01-31T02:39:14.869Z,5.99
2023-01-31T02:41:46.604Z,5.96
2023-01-31T02:44:39.806Z,5.99
2023-01-31T02:47:20.873Z,5.99
2023-01-31T02:49:56.988Z,5.99
2023-01-31T02:52:33.060Z,6.02
2023-01-31T02:55:28.706Z,5.97
2023-01-31T02:58:00.772Z,5.99
2023-01-31T03:00:30.618Z,5.95
2023-01-31T03:02:58.401Z,5.97
2023-01-31T03:05:27.638Z,5.93
2023-01-31T03:07:59.707Z,5.80
2023-01-31T03:10:40.492Z,5.94
2023-01-31T03:13:26.683Z,5.90
2023-01-31T03:16:21.488Z,5.87
2023-01-31T03:18:58.948Z,5.90
2023-01-31T03:21:33.790Z,5.86
2023-01-31T03:24:02.644Z,5.85
2023-01-31T03:26:30.935Z,5.82
2023-01-31T03:29:03.605Z,5.82
2023-01-31T03:31:39.466Z,5.78
2023-01-31T03:34:11.495Z,5.76
2023-01-31T03:36:47.566Z,5.74
2023-01-31T03:39:37.934Z,5.65
2023-01-31T03:42:09.549Z,5.68
2023-01-31T03:44:47.446Z,5.68
2023-01-31T03:47:18.466Z,5.65
2023-01-31T03:49:49.560Z,5.57
2023-01-31T03:52:23.769Z,5.59
2023-01-31T03:54:56.207Z,5.51
2023-01-31T03:57:27.563Z,5.54
2023-01-31T04:00:00.582Z,5.55
2023-01-31T04:02:34.247Z,5.47
2023-01-31T04:05:08.706Z,5.48
2023-01-31T04:07:41.932Z,5.53
2023-01-31T04:10:16.498Z,5.44
2023-01-31T04:12:44.510Z,5.29
2023-01-31T04:15:13.611Z,5.43
2023-01-31T04:17:41.350Z,5.42
2023-01-31T04:20:10.930Z,5.42
2023-01-31T04:22:40.279Z,5.33
2023-01-31T04:25:09.133Z,5.37
2023-01-31T04:27:37.132Z,5.46
2023-01-31T04:30:05.612Z,5.45
2023-01-31T04:32:33.601Z,5.48
2023-01-31T04:35:02.506Z,5.41
2023-01-31T04:37:30.513Z,5.41
2023-01-31T04:39:59.587Z,5.35
2023-01-31T04:42:27.362Z,5.41
2023-01-31T04:44:55.105Z,5.41
2023-01-31T04:47:22.810Z,5.40
2023-01-31T04:49:50.647Z,5.39
2023-01-31T04:52:18.427Z,5.40
2023-01-31T04:54:46.148Z,5.38
2023-01-31T04:57:15.283Z,5.36
2023-01-31T04:59:43.367Z,5.29
2023-01-31T05:02:11.120Z,5.30
2023-01-31T05:04:38.836Z,5.22
2023-01-31T05:07:06.791Z,5.23
2023-01-31T05:09:34.617Z,5.23
2023-01-31T05:12:02.690Z,5.24
2023-01-31T05:14:32.691Z,5.26
2023-01-31T05:17:07.607Z,5.12
2023-01-31T05:19:36.212Z,5.02
2023-01-31T05:22:07.383Z,5.21
2023-01-31T05:24:36.718Z,5.22
2023-01-31T05:27:04.885Z,5.26
2023-01-31T05:29:34.401Z,5.24
2023-01-31T05:32:04.269Z,5.29
2023-01-31T05:34:33.264Z,5.16
2023-01-31T05:37:02.461Z,5.29
2023-01-31T05:39:31.269Z,5.34
2023-01-31T05:41:59.727Z,5.31
2023-01-31T05:44:27.481Z,5.39
2023-01-31T05:46:56.562Z,5.39
2023-01-31T05:49:24.372Z,5.46
2023-01-31T05:51:52.065Z,5.46
2023-01-31T05:54:19.764Z,5.48
2023-01-31T05:56:47.502Z,5.35
2023-01-31T05:59:15.250Z,5.47
2023-01-31T06:01:43.180Z,5.48
2023-01-31T06:04:12.506Z,5.46
2023-01-31T06:06:40.200Z,5.45
2023-01-31T06:09:07.959Z,5.45
2023-01-31T06:11:35.748Z,5.44
2023-01-31T06:14:03.530Z,5.47
2023-01-31T06:16:31.296Z,5.46
2023-01-31T06:18:59.138Z,5.49
2023-01-31T06:21:28.556Z,5.49
2023-01-31T06:23:56.589Z,5.51
2023-01-31T06:26:24.779Z,5.50
2023-01-31T06:28:52.590Z,5.56
2023-01-31T06:31:20.652Z,5.53
2023-01-31T06:33:48.407Z,5.56
2023-01-31T06:36:18.854Z,5.57
2023-01-31T06:38:52.246Z,5.61
2023-01-31T06:41:20.653Z,5.61
2023-01-31T06:43:48.435Z,5.69
2023-01-31T06:46:16.203Z,5.70
2023-01-31T06:48:44.475Z,5.69
2023-01-31T06:51:12.423Z,5.71
2023-01-31T06:53:40.193Z,5.69
2023-01-31T06:56:10.300Z,5.71
2023-01-31T06:58:38.062Z,5.71
2023-01-31T07:01:06.717Z,5.69
2023-01-31T07:03:34.532Z,5.72
2023-01-31T07:06:02.339Z,5.77
2023-01-31T07:08:34.564Z,5.73
2023-01-31T07:11:02.909Z,5.78
2023-01-31T07:13:32.525Z,5.79
2023-01-31T07:16:00.534Z,5.80
2023-01-31T07:18:28.350Z,5.85
2023-01-31T07:20:56.295Z,5.75
2023-01-31T07:23:23.983Z,5.83
2023-01-31T07:25:51.907Z,5.87
2023-01-31T07:28:19.678Z,5.77
2023-01-31T07:30:48.912Z,5.86
2023-01-31T07:33:16.696Z,5.91
2023-01-31T07:35:44.502Z,5.93
2023-01-31T07:38:12.240Z,5.90
2023-01-31T07:40:40.414Z,5.85
2023-01-31T07:43:08.268Z,5.85
2023-01-31T07:45:36.347Z,5.90
2023-01-31T07:48:06.481Z,5.92
2023-01-31T07:50:34.262Z,5.92
2023-01-31T07:53:01.995Z,5.96
2023-01-31T07:55:29.849Z,5.96
2023-01-31T07:57:57.589Z,5.98
2023-01-31T08:00:43.044Z,5.98
2023-01-31T08:03:34.090Z,6.03
2023-01-31T08:06:04.386Z,6.05
2023-01-31T08:08:32.166Z,6.05
2023-01-31T08:11:00.126Z,6.11
2023-01-31T08:13:27.897Z,6.11
2023-01-31T08:15:55.684Z,6.12
2023-01-31T08:18:24.745Z,6.17
2023-01-31T08:20:52.488Z,6.18
2023-01-31T08:23:20.243Z,6.16
2023-01-31T08:25:47.919Z,6.17
2023-01-31T08:28:15.759Z,6.16
2023-01-31T08:30:50.331Z,6.15
2023-01-31T08:33:25.679Z,6.16
2023-01-31T08:35:53.487Z,6.22
2023-01-31T08:38:21.938Z,6.17
2023-01-31T08:40:51.049Z,6.22
2023-01-31T08:43:18.749Z,6.24
2023-01-31T08:45:46.877Z,6.26
2023-01-31T08:48:14.949Z,6.25
2023-01-31T08:50:44.117Z,6.17
2023-01-31T08:53:11.905Z,6.13
2023-01-31T08:55:39.647Z,6.26
2023-01-31T08:58:07.685Z,6.26
2023-01-31T09:00:35.700Z,6.22
2023-01-31T09:03:03.593Z,6.26
2023-01-31T09:05:33.584Z,6.28
2023-01-31T09:08:02.804Z,6.30
2023-01-31T09:10:30.590Z,6.34
2023-01-31T09:13:00.531Z,6.37
2023-01-31T09:15:28.749Z,6.35
2023-01-31T09:17:56.533Z,6.41
2023-01-31T09:20:24.396Z,6.37
2023-01-31T09:22:52.073Z,6.35
2023-01-31T09:25:33.493Z,6.23
2023-01-31T09:28:08.982Z,6.29
2023-01-31T09:30:36.685Z,6.33
2023-01-31T09:33:04.389Z,6.38
2023-01-31T09:35:32.166Z,6.38
2023-01-31T09:37:59.888Z,6.40
2023-01-31T09:40:33.204Z,6.31
2023-01-31T09:43:05.037Z,6.38
2023-01-31T09:45:35.137Z,6.43
2023-01-31T09:48:03.832Z,6.30
2023-01-31T09:50:36.787Z,6.32
2023-01-31T09:53:05.118Z,6.34
2023-01-31T09:55:42.416Z,6.31
2023-01-31T09:58:20.809Z,6.41
2023-01-31T10:00:53.188Z,6.43
2023-01-31T10:03:38.284Z,6.50
2023-01-31T10:06:12.061Z,6.54
2023-01-31T10:08:47.651Z,6.54
2023-01-31T10:11:23.762Z,6.55
2023-01-31T10:13:55.600Z,6.52
2023-01-31T10:16:29.230Z,6.54
2023-01-31T10:19:03.750Z,6.57
2023-01-31T10:21:37.006Z,6.54
2023-01-31T10:24:10.584Z,6.58
2023-01-31T10:26:43.138Z,6.68
2023-01-31T10:29:17.600Z,6.71
2023-01-31T10:31:51.086Z,6.72
2023-01-31T10:34:22.894Z,6.72
2023-01-31T10:36:56.303Z,6.74
2023-01-31T10:39:28.823Z,6.67
2023-01-31T10:42:10.190Z,6.77
2023-01-31T10:44:45.482Z,6.74
2023-01-31T10:47:14.993Z,6.76
2023-01-31T10:49:47.440Z,6.86
2023-01-31T10:52:33.190Z,6.89
2023-01-31T10:55:10.651Z,6.83
2023-01-31T10:57:39.901Z,6.95
2023-01-31T11:00:14.379Z,7.00
2023-01-31T11:02:42.178Z,6.99
2023-01-31T11:05:20.069Z,6.99
2023-01-31T11:07:48.961Z,7.06
2023-01-31T11:10:25.142Z,6.91
2023-01-31T11:13:01.757Z,7.02
2023-01-31T11:15:36.206Z,7.07
2023-01-31T11:18:04.709Z,7.05
2023-01-31T11:20:36.627Z,7.16
2023-01-31T11:23:07.500Z,7.21
2023-01-31T11:25:35.917Z,7.31
2023-01-31T11:28:17.394Z,7.32
2023-01-31T11:30:50.272Z,7.27
2023-01-31T11:33:56.402Z,7.31
2023-01-31T11:36:24.583Z,7.32
2023-01-31T11:38:52.594Z,7.26
2023-01-31T11:41:33.903Z,7.27
2023-01-31T11:44:13.623Z,7.29
2023-01-31T11:46:45.732Z,7.26
2023-01-31T11:49:15.700Z,7.28
2023-01-31T11:51:45.108Z,7.28
2023-01-31T11:54:19.327Z,7.29
2023-01-31T11:56:47.977Z,7.32
2023-01-31T11:59:20.935Z,7.19
2023-01-31T12:01:51.816Z,7.26
2023-01-31T12:04:23.342Z,7.26
2023-01-31T12:07:01.801Z,7.21
2023-01-31T12:09:42.476Z,7.16
2023-01-31T12:12:24.523Z,7.28
2023-01-31T12:14:57.194Z,7.17
2023-01-31T12:17:25.050Z,7.26
2023-01-31T12:20:21.341Z,7.27
2023-01-31T12:23:03.455Z,7.34
2023-01-31T12:25:47.242Z,7.30
2023-01-31T12:28:29.539Z,7.31
2023-01-31T12:31:17.061Z,7.27
2023-01-31T12:34:02.426Z,7.33
2023-01-31T12:36:47.904Z,7.34
2023-01-31T12:39:27.642Z,7.35
2023-01-31T12:42:06.474Z,7.37
2023-01-31T12:44:47.417Z,7.36
2023-01-31T12:47:30.050Z,7.36
2023-01-31T12:50:14.297Z,7.37
2023-01-31T12:52:53.507Z,7.36
2023-01-31T12:55:30.962Z,7.38
2023-01-31T12:58:16.862Z,7.36
2023-01-31T13:00:50.502Z,7.35
2023-01-31T13:03:49.338Z,7.35
2023-01-31T13:06:23.118Z,7.39
2023-01-31T13:09:07.736Z,7.39
2023-01-31T13:11:41.102Z,7.37
2023-01-31T13:14:15.873Z,7.40
2023-01-31T13:16:46.654Z,7.35
2023-01-31T13:19:20.753Z,7.37
2023-01-31T13:21:52.926Z,7.42
2023-01-31T13:24:24.621Z,7.46
2023-01-31T13:26:57.765Z,7.41
2023-01-31T13:29:30.874Z,7.32
2023-01-31T13:32:02.595Z,7.36
2023-01-31T13:34:40.633Z,7.38
2023-01-31T13:37:13.734Z,7.38
2023-01-31T13:39:44.756Z,7.30
2023-01-31T13:42:16.077Z,7.30
2023-01-31T13:44:44.282Z,7.34
2023-01-31T13:47:17.943Z,7.34
2023-01-31T13:49:51.449Z,7.39
2023-01-31T13:52:25.264Z,7.29
2023-01-31T13:54:58.147Z,7.20
2023-01-31T13:57:29.515Z,7.26
2023-01-31T14:00:04.819Z,7.22
2023-01-31T14:02:32.933Z,7.19
2023-01-31T14:05:28.300Z,7.22
2023-01-31T14:08:28.737Z,7.19
2023-01-31T14:10:57.726Z,7.20
2023-01-31T14:13:31.776Z,7.16
2023-01-31T14:15:59.919Z,7.13
2023-01-31T14:18:40.934Z,7.08
2023-01-31T14:21:56.205Z,7.14
2023-01-31T14:25:05.387Z,7.14
2023-01-31T14:28:02.515Z,7.16
2023-01-31T14:30:36.383Z,7.09
2023-01-31T14:33:09.044Z,7.13
2023-01-31T14:35:59.722Z,7.12
2023-01-31T14:38:41.106Z,7.14
2023-01-31T14:41:18.272Z,7.14
2023-01-31T14:44:02.609Z,7.13
2023-01-31T14:46:45.806Z,7.16
2023-01-31T14:49:34.633Z,7.17
2023-01-31T14:52:42.121Z,7.16
2023-01-31T14:55:34.846Z,7.14
2023-01-31T14:58:06.752Z,7.18
2023-01-31T15:00:40.007Z,7.16
2023-01-31T15:03:10.278Z,7.17
2023-01-31T15:05:44.146Z,7.16
2023-01-31T15:08:45.209Z,7.12
2023-01-31T15:11:41.872Z,7.00
2023-01-31T15:14:34.292Z,7.07
2023-01-31T15:17:23.651Z,7.12
2023-01-31T15:20:07.664Z,7.10
2023-01-31T15:22:41.343Z,7.16
2023-01-31T15:25:23.191Z,7.10
2023-01-31T15:27:51.705Z,7.13
2023-01-31T15:30:21.925Z,7.17
2023-01-31T15:32:56.982Z,7.14
2023-01-31T15:35:30.614Z,7.13
2023-01-31T15:38:03.256Z,7.13
2023-01-31T15:40:31.802Z,7.14
2023-01-31T15:43:17.464Z,7.12
2023-01-31T15:45:45.292Z,7.13
2023-01-31T15:48:16.417Z,7.19
2023-01-31T15:50:51.941Z,7.16
2023-01-31T15:53:22.479Z,7.14
2023-01-31T15:55:51.760Z,7.18
2023-01-31T15:58:22.100Z,7.15
2023-01-31T16:00:52.516Z,7.17
2023-01-31T16:03:24.576Z,7.21
2023-01-31T16:05:54.754Z,7.21
2023-01-31T16:08:29.128Z,7.23
2023-01-31T16:10:59.565Z,7.19
2023-01-31T16:13:42.876Z,7.22
2023-01-31T16:16:14.131Z,7.18
2023-01-31T16:18:48.418Z,7.17
2023-01-31T16:21:25.191Z,7.22
2023-01-31T16:24:05.024Z,7.22
2023-01-31T16:26:35.561Z,7.20
2023-01-31T16:29:09.358Z,7.24
2023-01-31T16:31:48.965Z,7.26
2023-01-31T16:34:26.750Z,7.27
2023-01-31T16:37:01.146Z,7.29
2023-01-31T16:39:38.967Z,7.30
2023-01-31T16:42:10.591Z,7.31
2023-01-31T16:44:43.505Z,7.24
2023-01-31T16:47:32.911Z,7.30
2023-01-31T16:50:42.245Z,7.34
2023-01-31T16:53:19.201Z,7.37
2023-01-31T16:55:47.243Z,7.30
2023-01-31T16:58:45.154Z,7.35
2023-01-31T17:01:15.260Z,7.35
2023-01-31T17:03:43.212Z,7.38
2023-01-31T17:06:20.658Z,7.32
2023-01-31T17:08:48.748Z,7.38
2023-01-31T17:11:34.058Z,7.43
2023-01-31T17:14:06.615Z,7.38
2023-01-31T17:16:34.315Z,7.43
2023-01-31T17:19:02.110Z,7.45
2023-01-31T17:21:35.823Z,7.43
2023-01-31T17:24:03.791Z,7.27
2023-01-31T17:26:32.152Z,7.43
2023-01-31T17:29:02.364Z,7.45
2023-01-31T17:31:31.433Z,7.43
2023-01-31T17:33:59.442Z,7.51
2023-01-31T17:36:27.251Z,7.51
2023-01-31T17:38:56.480Z,7.54
2023-01-31T17:41:25.147Z,7.53
2023-01-31T17:43:53.134Z,7.54
2023-01-31T17:46:21.354Z,7.53
2023-01-31T17:48:49.083Z,7.57
2023-01-31T17:51:16.909Z,7.57
2023-01-31T17:53:50.035Z,7.59
2023-01-31T17:56:19.824Z,7.50
2023-01-31T17:58:49.269Z,7.54
2023-01-31T18:01:17.233Z,7.56
2023-01-31T18:03:45.193Z,7.57
2023-01-31T18:06:13.232Z,7.56
2023-01-31T18:08:41.336Z,7.51
2023-01-31T18:11:11.286Z,7.58
2023-01-31T18:13:40.895Z,7.49
2023-01-31T18:16:10.528Z,7.55
2023-01-31T18:18:40.477Z,7.52
2023-01-31T18:21:10.381Z,7.46
2023-01-31T18:23:38.170Z,7.51
2023-01-31T18:26:06.652Z,7.50
2023-01-31T18:28:34.738Z,7.50
2023-01-31T18:31:04.951Z,7.47
2023-01-31T18:33:33.756Z,7.40
2023-01-31T18:36:02.455Z,7.53
2023-01-31T18:38:31.078Z,7.55
2023-01-31T18:41:01.785Z,7.56
2023-01-31T18:43:33.455Z,7.48
2023-01-31T18:46:05.265Z,7.54
2023-01-31T18:48:36.558Z,7.56
2023-01-31T18:51:07.640Z,7.56
2023-01-31T18:53:36.408Z,7.58
2023-01-31T18:56:06.437Z,7.57
2023-01-31T18:58:35.615Z,7.51
2023-01-31T19:01:13.100Z,7.56
2023-01-31T19:03:42.411Z,7.57
2023-01-31T19:06:12.088Z,7.60
2023-01-31T19:08:40.448Z,7.60
2023-01-31T19:11:14.164Z,7.60
2023-01-31T19:13:42.751Z,7.60
2023-01-31T19:16:13.637Z,7.64
2023-01-31T19:18:41.757Z,7.48
2023-01-31T19:21:16.460Z,7.62
2023-01-31T19:23:44.698Z,7.67
2023-01-31T19:26:12.938Z,7.68
2023-01-31T19:28:41.489Z,7.65
2023-01-31T19:31:13.430Z,7.64
2023-01-31T19:33:41.792Z,7.69
2023-01-31T19:36:10.688Z,7.65
2023-01-31T19:38:38.546Z,7.70
2023-01-31T19:41:07.705Z,7.71
2023-01-31T19:43:35.596Z,7.70
2023-01-31T19:46:03.772Z,7.66
2023-01-31T19:48:33.512Z,7.56
2023-01-31T19:51:07.874Z,7.66
2023-01-31T19:53:36.612Z,7.69
2023-01-31T19:56:05.267Z,7.59
2023-01-31T19:58:33.177Z,7.67
2023-01-31T20:01:03.584Z,7.72
2023-01-31T20:03:32.927Z,7.68
2023-01-31T20:06:03.150Z,7.70
2023-01-31T20:08:33.722Z,7.74
2023-01-31T20:11:01.442Z,7.71
2023-01-31T20:13:29.487Z,7.69
2023-01-31T20:16:01.301Z,7.06
2023-01-31T20:18:30.985Z,6.94
2023-01-31T20:21:00.270Z,6.67
2023-01-31T20:23:33.133Z,6.52
2023-01-31T20:26:01.454Z,6.59
2023-01-31T20:28:29.233Z,6.52
2023-01-31T20:30:57.487Z,6.49
2023-01-31T20:33:27.946Z,6.50
2023-01-31T20:35:55.756Z,6.54
2023-01-31T20:38:26.701Z,6.60
2023-01-31T20:40:55.674Z,6.57
2023-01-31T20:43:26.042Z,6.63
2023-01-31T20:45:56.854Z,6.56
2023-01-31T20:48:24.806Z,6.65
2023-01-31T20:50:56.288Z,6.65
2023-01-31T20:53:28.167Z,6.73
2023-01-31T20:55:58.227Z,6.76
2023-01-31T20:58:26.635Z,6.79
2023-01-31T21:00:55.053Z,6.77
2023-01-31T21:03:23.993Z,6.75
2023-01-31T21:05:52.083Z,6.83
2023-01-31T21:08:20.610Z,6.84
2023-01-31T21:10:54.924Z,6.78
2023-01-31T21:13:24.637Z,6.77
2023-01-31T21:15:53.121Z,6.85
2023-01-31T21:18:25.814Z,6.81
2023-01-31T21:20:57.218Z,6.81
2023-01-31T21:23:25.130Z,6.92
2023-01-31T21:25:54.514Z,6.90
2023-01-31T21:28:27.143Z,6.91
2023-01-31T21:30:59.356Z,6.91
2023-01-31T21:33:28.021Z,6.91
2023-01-31T21:35:58.107Z,6.93
2023-01-31T21:38:26.282Z,6.86
2023-01-31T21:41:15.673Z,7.03
2023-01-31T21:43:43.455Z,7.09
2023-01-31T21:46:11.666Z,7.12
2023-01-31T21:48:40.571Z,7.18
2023-01-31T21:51:10.088Z,7.19
2023-01-31T21:53:38.815Z,7.20
2023-01-31T21:56:10.541Z,7.20
2023-01-31T21:58:41.921Z,7.26
2023-01-31T22:01:13.079Z,7.20
2023-01-31T22:03:43.099Z,7.14
2023-01-31T22:06:12.077Z,7.24
2023-01-31T22:08:40.339Z,7.29
2023-01-31T22:11:13.350Z,7.27
2023-01-31T22:13:43.929Z,7.33
2023-01-31T22:16:13.291Z,7.31
2023-01-31T22:18:42.695Z,7.29
2023-01-31T22:21:12.800Z,7.35
2023-01-31T22:23:42.795Z,7.36
2023-01-31T22:26:13.654Z,7.32
2023-01-31T22:28:41.438Z,7.30
2023-01-31T22:31:12.043Z,7.33
2023-01-31T22:33:41.444Z,7.30
2023-01-31T22:36:11.609Z,7.37
2023-01-31T22:38:39.540Z,7.28
2023-01-31T22:41:09.528Z,7.31
2023-01-31T22:43:39.721Z,7.39
2023-01-31T22:46:09.529Z,7.37
2023-01-31T22:48:37.694Z,7.38
2023-01-31T22:51:07.982Z,7.35
2023-01-31T22:53:37.841Z,7.30
2023-01-31T22:56:07.892Z,7.36
2023-01-31T22:58:35.854Z,7.37
2023-01-31T23:01:12.214Z,7.30
2023-01-31T23:03:40.108Z,7.35
2023-01-31T23:06:08.242Z,7.38
2023-01-31T23:08:36.265Z,7.31
2023-01-31T23:11:06.179Z,7.30
2023-01-31T23:13:34.665Z,7.33
2023-01-31T23:16:02.955Z,7.34
2023-01-31T23:18:32.294Z,7.38
2023-01-31T23:21:07.348Z,7.36
2023-01-31T23:23:35.200Z,7.25
2023-01-31T23:26:05.121Z,7.32
2023-01-31T23:28:33.142Z,7.32
2023-01-31T23:31:00.986Z,7.39
2023-01-31T23:33:28.985Z,7.39
2023-01-31T23:35:58.119Z,7.37
2023-01-31T23:38:26.089Z,7.36
2023-01-31T23:40:54.086Z,7.37
2023-01-31T23:43:22.351Z,7.37
2023-01-31T23:45:50.223Z,7.43
2023-01-31T23:48:18.416Z,7.42
2023-01-31T23:50:46.186Z,7.39
2023-01-31T23:53:15.344Z,7.33
2023-01-31T23:55:43.104Z,7.43
2023-01-31T23:58:10.883Z,7.44
